Time;durP1;ratioP1;P1;durP2;ratioP2;P2;SDS_P1;SDS_P2;PMS_P1;PMS_P2;Temp;Humidity;BMP_temperature;BMP_pressure;BME280_temperature;BME280_humidity;BME280_pressure;Samples;Min_cycle;Max_cycle;Signal;HPM_P1;HPM_P2
2023/09/13 00:00:56;;;;;;;807.10;774.40;;;18.20;99.90;;;;;;5054103;28;20987;-69
2023/09/13 00:03:23;;;;;;;809.53;776.57;;;18.20;99.90;;;;;;5054828;28;20973;-70
2023/09/13 00:05:50;;;;;;;806.80;773.83;;;18.20;99.90;;;;;;5054082;28;20458;-69
2023/09/13 00:08:16;;;;;;;817.07;783.23;;;18.20;99.90;;;;;;5053823;28;20455;-69
2023/09/13 00:10:45;;;;;;;813.73;779.80;;;18.20;99.90;;;;;;5053991;28;20462;-70
2023/09/13 00:13:13;;;;;;;821.00;786.30;;;18.20;99.90;;;;;;5054618;28;20487;-70
2023/09/13 00:15:43;;;;;;;825.30;790.13;;;18.30;99.90;;;;;;5054064;28;20952;-69
2023/09/13 00:18:14;;;;;;;833.20;797.23;;;18.20;99.90;;;;;;5053872;28;20449;-69
2023/09/13 00:20:42;;;;;;;835.00;798.50;;;18.30;99.90;;;;;;5053988;28;20460;-69
2023/09/13 00:23:09;;;;;;;839.17;802.20;;;18.20;99.90;;;;;;5054516;28;20450;-69
2023/09/13 00:25:36;;;;;;;842.50;805.37;;;18.20;99.90;;;;;;5053821;28;20452;-69
2023/09/13 00:28:03;;;;;;;843.97;806.57;;;18.20;99.90;;;;;;5053710;28;20800;-69
2023/09/13 00:30:30;;;;;;;843.83;806.33;;;18.20;99.90;;;;;;5053607;28;20456;-71
2023/09/13 00:32:57;;;;;;;842.90;805.53;;;18.20;99.90;;;;;;5054184;28;20476;-70
2023/09/13 00:35:25;;;;;;;843.47;805.77;;;18.20;99.90;;;;;;5053422;28;20460;-70
2023/09/13 00:37:52;;;;;;;843.50;805.63;;;18.20;99.90;;;;;;5053436;28;20448;-70
2023/09/13 00:40:19;;;;;;;846.37;808.23;;;18.20;99.90;;;;;;5053344;28;20487;-69
2023/09/13 00:42:45;;;;;;;846.30;807.67;;;18.10;99.90;;;;;;5054222;28;20450;-70
2023/09/13 00:45:12;;;;;;;851.20;811.93;;;18.10;99.90;;;;;;5053622;28;20936;-69
2023/09/13 00:47:40;;;;;;;851.57;812.10;;;18.10;99.90;;;;;;5053205;28;20458;-69
2023/09/13 00:50:09;;;;;;;854.90;815.20;;;18.10;99.90;;;;;;5053154;28;20850;-70
2023/09/13 00:52:38;;;;;;;857.97;817.90;;;18.00;99.90;;;;;;5053695;28;20482;-71
2023/09/13 00:55:07;;;;;;;862.07;821.53;;;18.10;99.90;;;;;;5053195;28;20935;-69
2023/09/13 00:57:35;;;;;;;860.17;819.80;;;18.10;99.90;;;;;;5053060;28;20915;-70
2023/09/13 01:00:09;;;;;;;862.53;822.00;;;18.10;99.90;;;;;;5052642;28;20966;-70
2023/09/13 01:02:38;;;;;;;865.80;824.73;;;18.10;99.90;;;;;;5054268;28;20439;-69
2023/09/13 01:05:05;;;;;;;864.13;823.27;;;18.10;99.90;;;;;;5053199;28;20539;-70
2023/09/13 01:07:36;;;;;;;862.23;821.13;;;18.00;99.90;;;;;;5052986;28;20828;-69
2023/09/13 01:10:05;;;;;;;862.83;821.67;;;17.90;99.90;;;;;;5052622;28;20450;-70
2023/09/13 01:12:32;;;;;;;859.47;818.87;;;17.80;99.90;;;;;;5053720;28;20470;-70
2023/09/13 01:14:59;;;;;;;852.73;812.73;;;17.80;99.90;;;;;;5052840;28;20453;-69
2023/09/13 01:17:34;;;;;;;857.37;817.17;;;17.80;99.90;;;;;;5052989;28;20837;-69
2023/09/13 01:20:09;;;;;;;859.60;819.70;;;17.80;99.90;;;;;;5052722;28;20459;-70
2023/09/13 01:23:16;;;;;;;858.53;818.17;;;17.80;99.90;;;;;;5053374;28;20484;-69
2023/09/13 01:26:21;;;;;;;854.03;814.17;;;17.80;99.90;;;;;;5052840;28;20447;-69
2023/09/13 01:28:54;;;;;;;863.90;823.17;;;17.80;99.90;;;;;;5049892;28;20460;-69
2023/09/13 01:31:21;;;;;;;861.17;820.60;;;17.90;99.90;;;;;;5052876;28;20460;-70
2023/09/13 01:33:49;;;;;;;865.63;824.10;;;17.90;99.90;;;;;;5052820;28;20484;-69
2023/09/13 01:36:15;;;;;;;866.00;823.67;;;18.00;99.90;;;;;;5052783;28;20454;-69
2023/09/13 01:38:43;;;;;;;871.93;828.90;;;18.10;99.90;;;;;;5052345;28;20543;-69
2023/09/13 01:41:17;;;;;;;881.07;836.60;;;18.10;99.90;;;;;;5052873;28;20468;-70
2023/09/13 01:43:46;;;;;;;878.23;833.37;;;18.20;99.90;;;;;;5053170;28;20436;-70
2023/09/13 01:46:15;;;;;;;884.23;838.63;;;18.20;99.90;;;;;;5052711;28;20452;-70
2023/09/13 01:48:42;;;;;;;901.50;854.33;;;18.20;99.90;;;;;;5052499;28;20654;-69
2023/09/13 01:51:10;;;;;;;905.43;858.10;;;18.20;99.90;;;;;;5053080;28;20454;-70
2023/09/13 01:53:44;;;;;;;899.10;852.07;;;18.30;99.90;;;;;;5053006;28;20489;-70
2023/09/13 01:56:11;;;;;;;904.80;857.40;;;18.30;99.90;;;;;;5052586;28;20454;-70
2023/09/13 01:58:38;;;;;;;901.57;854.57;;;18.20;99.90;;;;;;5052269;28;20456;-71
2023/09/13 02:01:04;;;;;;;901.80;854.97;;;18.20;99.90;;;;;;5053157;28;20452;-69
2023/09/13 02:03:32;;;;;;;903.47;856.50;;;18.20;99.90;;;;;;5055882;28;20450;-71
2023/09/13 02:05:59;;;;;;;896.60;850.40;;;18.20;99.90;;;;;;5056453;28;20466;-69
2023/09/13 02:08:26;;;;;;;901.63;855.40;;;18.20;99.90;;;;;;5056158;28;20457;-70
2023/09/13 02:10:53;;;;;;;900.70;854.60;;;18.20;99.90;;;;;;5056361;28;20461;-70
2023/09/13 02:13:20;;;;;;;906.40;859.80;;;18.30;99.90;;;;;;5056741;28;20828;-70
2023/09/13 02:15:46;;;;;;;900.53;855.10;;;18.20;99.90;;;;;;5056365;28;20853;-70
2023/09/13 02:18:13;;;;;;;906.83;860.37;;;18.20;99.90;;;;;;5056051;28;20447;-73
2023/09/13 02:20:41;;;;;;;905.67;859.60;;;18.10;99.90;;;;;;5055931;28;20458;-70
2023/09/13 02:23:08;;;;;;;906.03;860.23;;;18.10;99.90;;;;;;5056767;28;20444;-70
2023/09/13 02:25:37;;;;;;;901.07;856.20;;;18.10;99.90;;;;;;5055382;28;20458;-70
2023/09/13 02:28:05;;;;;;;896.60;852.30;;;18.10;99.90;;;;;;5055510;28;20818;-69
2023/09/13 02:30:35;;;;;;;900.60;856.33;;;18.10;99.90;;;;;;5055185;28;20455;-71
2023/09/13 02:33:02;;;;;;;897.83;853.47;;;18.10;99.90;;;;;;5056179;28;20465;-69
2023/09/13 02:35:30;;;;;;;906.10;860.03;;;18.20;99.90;;;;;;5055814;28;20454;-70
2023/09/13 02:37:59;;;;;;;907.50;860.97;;;18.20;99.90;;;;;;5055332;28;20944;-70
2023/09/13 02:40:26;;;;;;;910.10;863.23;;;18.20;99.90;;;;;;5055401;28;20452;-72
2023/09/13 02:42:53;;;;;;;910.03;863.13;;;18.20;99.90;;;;;;5056318;28;20802;-72
2023/09/13 02:45:19;;;;;;;914.83;867.50;;;18.30;99.90;;;;;;5055354;28;21060;-70
2023/09/13 02:47:46;;;;;;;917.07;869.20;;;18.30;99.90;;;;;;5055160;28;20454;-70
2023/09/13 02:50:13;;;;;;;926.33;877.87;;;18.30;99.90;;;;;;5055345;28;20553;-70
2023/09/13 02:52:41;;;;;;;928.03;879.30;;;18.30;99.90;;;;;;5056233;28;20963;-72
2023/09/13 02:55:10;;;;;;;934.67;885.50;;;18.30;99.90;;;;;;5055351;28;20453;-70
2023/09/13 02:57:37;;;;;;;934.57;885.27;;;18.40;99.90;;;;;;5055120;28;20932;-71
2023/09/13 03:00:05;;;;;;;938.10;888.47;;;18.30;99.90;;;;;;5054904;28;20457;-70
2023/09/13 03:02:32;;;;;;;942.83;892.90;;;18.30;99.90;;;;;;5056223;28;20461;-71
2023/09/13 03:04:59;;;;;;;941.60;892.23;;;18.20;99.90;;;;;;5055558;28;20448;-70
2023/09/13 03:07:26;;;;;;;954.93;904.87;;;18.20;99.90;;;;;;5055109;28;20940;-70
2023/09/13 03:09:54;;;;;;;952.10;902.53;;;18.20;99.90;;;;;;5054723;28;20459;-70
2023/09/13 03:12:22;;;;;;;953.47;903.80;;;18.20;99.90;;;;;;5055619;28;20455;-71
2023/09/13 03:14:49;;;;;;;949.70;900.80;;;18.10;99.90;;;;;;5054301;28;20547;-70
2023/09/13 03:17:16;;;;;;;951.43;902.40;;;18.10;99.90;;;;;;5055223;28;20480;-70
2023/09/13 03:19:43;;;;;;;955.33;906.00;;;18.10;99.90;;;;;;5054641;28;20450;-70
2023/09/13 03:22:09;;;;;;;954.87;905.57;;;18.00;99.90;;;;;;5055620;28;20458;-70
2023/09/13 03:24:36;;;;;;;951.07;901.97;;;18.00;99.90;;;;;;5055226;28;20452;-70
2023/09/13 03:27:03;;;;;;;948.30;899.20;;;18.00;99.90;;;;;;5055022;28;20812;-70
2023/09/13 03:29:33;;;;;;;955.90;906.50;;;18.00;99.90;;;;;;5054835;28;20448;-70
2023/09/13 03:32:00;;;;;;;956.20;906.60;;;18.10;99.90;;;;;;5055390;28;20461;-70
2023/09/13 03:34:26;;;;;;;957.10;907.27;;;18.10;99.90;;;;;;5054798;28;20488;-70
2023/09/13 03:36:54;;;;;;;959.90;909.93;;;18.10;99.90;;;;;;5054084;28;20894;-70
2023/09/13 03:39:21;;;;;;;957.50;906.70;;;18.20;99.90;;;;;;5053702;28;20463;-73
2023/09/13 03:41:48;;;;;;;972.73;920.90;;;18.10;99.90;;;;;;5055109;28;20488;-71
2023/09/13 03:44:15;;;;;;;967.57;915.67;;;18.20;99.90;;;;;;5054936;28;20811;-71
2023/09/13 03:46:43;;;;;;;940.17;890.87;;;18.30;99.90;;;;;;5054366;28;20453;-69
2023/09/13 03:49:10;;;;;;;936.73;887.70;;;18.30;99.90;;;;;;5051046;28;20477;-69
2023/09/13 03:51:36;;;;;;;934.07;884.90;;;18.30;99.90;;;;;;5034780;28;20451;-69
2023/09/13 03:54:03;;;;;;;890.77;844.30;;;18.30;99.90;;;;;;5034422;28;20999;-69
2023/09/13 03:56:30;;;;;;;880.93;833.73;;;18.30;99.90;;;;;;5034242;28;20456;-69
2023/09/13 03:58:57;;;;;;;876.80;829.70;;;18.30;99.90;;;;;;5033995;28;20925;-72
2023/09/13 04:01:24;;;;;;;885.00;837.50;;;18.30;99.90;;;;;;5034801;28;20459;-70
2023/09/13 04:03:52;;;;;;;892.17;844.77;;;18.30;99.90;;;;;;5034493;28;20499;-69
2023/09/13 04:06:19;;;;;;;875.00;829.70;;;18.20;99.90;;;;;;5034343;28;20450;-70
2023/09/13 04:08:46;;;;;;;839.00;795.97;;;18.30;99.90;;;;;;5034101;28;20457;-69
2023/09/13 04:11:13;;;;;;;850.37;806.00;;;18.30;99.90;;;;;;5034514;28;20461;-69
2023/09/13 04:13:40;;;;;;;847.50;803.30;;;18.20;99.90;;;;;;5034711;28;20506;-70
2023/09/13 04:16:08;;;;;;;860.63;815.10;;;18.20;99.90;;;;;;5034036;28;20456;-71
2023/09/13 04:18:35;;;;;;;861.53;816.10;;;18.10;99.90;;;;;;5033719;28;20453;-69
2023/09/13 04:21:03;;;;;;;874.77;828.67;;;18.10;99.90;;;;;;5033946;28;20945;-69
2023/09/13 04:23:30;;;;;;;879.10;832.50;;;18.10;99.90;;;;;;5034217;28;20546;-69
2023/09/13 04:25:57;;;;;;;882.27;835.90;;;18.00;99.90;;;;;;5033855;28;20820;-70
2023/09/13 04:28:26;;;;;;;888.93;842.00;;;18.00;99.90;;;;;;5033677;28;20453;-70
2023/09/13 04:30:53;;;;;;;889.10;842.00;;;17.90;99.90;;;;;;5033825;28;20470;-69
2023/09/13 04:33:39;;;;;;;893.20;845.57;;;17.90;99.90;;;;;;5033900;28;20464;-69
2023/09/13 04:36:08;;;;;;;891.10;843.40;;;17.90;99.90;;;;;;5033466;28;20542;-69
2023/09/13 04:38:34;;;;;;;895.13;847.30;;;17.80;99.90;;;;;;5033563;28;20455;-69
2023/09/13 04:41:03;;;;;;;889.87;842.40;;;17.70;99.90;;;;;;5033655;28;20455;-69
2023/09/13 04:43:30;;;;;;;895.93;848.43;;;17.70;99.90;;;;;;5034146;28;20457;-70
2023/09/13 04:45:57;;;;;;;896.70;848.77;;;17.70;99.90;;;;;;5033558;28;20450;-69
2023/09/13 04:48:23;;;;;;;898.87;850.97;;;17.70;99.90;;;;;;5033480;28;20476;-69
2023/09/13 04:50:50;;;;;;;901.17;852.70;;;17.70;99.90;;;;;;5033658;28;20461;-72
2023/09/13 04:53:18;;;;;;;906.77;857.70;;;17.70;99.90;;;;;;5034105;28;20457;-71
2023/09/13 04:55:45;;;;;;;910.80;861.80;;;17.70;99.90;;;;;;5033393;28;20446;-72
2023/09/13 04:58:12;;;;;;;917.53;868.30;;;17.70;99.90;;;;;;5033213;28;20475;-69
2023/09/13 05:00:39;;;;;;;923.40;873.40;;;17.70;99.90;;;;;;5033036;28;20461;-69
2023/09/13 05:03:06;;;;;;;925.80;875.67;;;17.70;99.90;;;;;;5033913;28;20456;-72
2023/09/13 05:05:33;;;;;;;921.57;871.53;;;17.70;99.90;;;;;;5033147;28;20451;-70
2023/09/13 05:08:00;;;;;;;917.00;867.47;;;17.70;99.90;;;;;;5032903;28;20463;-72
2023/09/13 05:10:31;;;;;;;914.90;865.63;;;17.70;99.90;;;;;;5032718;28;20483;-71
2023/09/13 05:12:58;;;;;;;915.43;865.70;;;17.70;99.90;;;;;;5033669;28;20435;-70
2023/09/13 05:15:25;;;;;;;919.53;869.23;;;17.70;99.90;;;;;;5032985;28;20833;-71
2023/09/13 05:17:52;;;;;;;922.50;871.60;;;17.70;99.90;;;;;;5032894;28;20604;-72
2023/09/13 05:20:19;;;;;;;931.50;879.87;;;17.70;99.90;;;;;;5032585;28;20461;-71
2023/09/13 05:22:46;;;;;;;924.90;874.73;;;17.70;99.90;;;;;;5033711;28;20796;-69
2023/09/13 05:25:12;;;;;;;921.10;870.83;;;17.60;99.90;;;;;;5032655;28;20975;-70
2023/09/13 05:27:41;;;;;;;920.50;870.20;;;17.50;99.90;;;;;;5032723;28;20459;-70
2023/09/13 05:30:09;;;;;;;920.63;871.23;;;17.50;99.90;;;;;;5032765;28;20458;-70
2023/09/13 05:32:36;;;;;;;922.67;872.57;;;17.50;99.90;;;;;;5033798;28;20544;-73
2023/09/13 05:35:02;;;;;;;926.97;877.17;;;17.50;99.90;;;;;;5048370;28;20561;-72
2023/09/13 05:37:29;;;;;;;929.63;879.50;;;17.60;99.90;;;;;;5051354;28;20550;-71
2023/09/13 05:39:56;;;;;;;933.03;882.60;;;17.70;99.90;;;;;;5050986;28;20450;-71
2023/09/13 05:42:23;;;;;;;932.03;882.27;;;17.70;99.90;;;;;;5052696;28;20474;-71
2023/09/13 05:44:51;;;;;;;936.17;885.33;;;17.70;99.90;;;;;;5052073;28;20955;-75
2023/09/13 05:47:18;;;;;;;939.80;888.37;;;17.70;99.90;;;;;;5052263;28;20466;-72
2023/09/13 05:49:45;;;;;;;940.83;888.83;;;17.80;99.90;;;;;;5051700;28;20489;-71
2023/09/13 05:52:12;;;;;;;942.80;890.20;;;17.80;99.90;;;;;;5053507;28;20457;-71
2023/09/13 05:54:39;;;;;;;952.40;898.80;;;17.80;99.90;;;;;;5052358;28;20481;-70
2023/09/13 05:57:06;;;;;;;950.07;896.50;;;17.80;99.90;;;;;;5052254;28;20959;-70
2023/09/13 05:59:35;;;;;;;950.13;896.93;;;17.80;99.90;;;;;;5052273;28;20452;-69
2023/09/13 06:02:03;;;;;;;954.00;901.00;;;17.80;99.90;;;;;;5052898;28;20818;-70
2023/09/13 06:04:30;;;;;;;964.80;910.30;;;17.80;99.90;;;;;;5051952;28;20454;-69
2023/09/13 06:06:57;;;;;;;964.90;911.10;;;17.90;99.90;;;;;;5052251;28;20456;-70
2023/09/13 06:09:24;;;;;;;970.50;917.43;;;17.80;99.90;;;;;;5052074;28;20449;-72
2023/09/13 06:11:50;;;;;;;976.27;922.77;;;17.80;99.90;;;;;;5052575;28;20953;-70
2023/09/13 06:14:19;;;;;;;981.43;928.23;;;17.80;99.90;;;;;;5052245;28;20577;-72
2023/09/13 06:16:46;;;;;;;978.23;926.40;;;17.80;99.90;;;;;;5052052;28;20869;-73
2023/09/13 06:19:14;;;;;;;989.63;937.20;;;17.80;99.90;;;;;;5052107;28;20472;-75
2023/09/13 06:21:41;;;;;;;995.70;942.60;;;17.90;99.90;;;;;;5052863;28;20457;-76
2023/09/13 06:24:08;;;;;;;994.67;943.27;;;17.90;99.90;;;;;;5052541;28;20453;-76
2023/09/13 06:26:34;;;;;;;975.63;925.90;;;18.00;99.90;;;;;;5052036;28;20459;-75
2023/09/13 06:29:01;;;;;;;996.67;945.17;;;17.90;99.90;;;;;;5052135;28;20453;-78
2023/09/13 06:31:28;;;;;;;994.70;942.90;;;17.90;99.90;;;;;;5052499;28;20452;-73
2023/09/13 06:33:55;;;;;;;998.30;946.50;;;18.00;99.90;;;;;;5052400;28;20479;-72
2023/09/13 06:36:23;;;;;;;992.77;941.30;;;18.00;99.90;;;;;;5050163;28;20450;-71
2023/09/13 06:38:51;;;;;;;992.60;941.50;;;18.00;99.90;;;;;;5051629;28;20454;-71
2023/09/13 06:41:17;;;;;;;995.80;943.90;;;18.00;99.90;;;;;;5052436;28;20852;-73
2023/09/13 06:43:44;;;;;;;1002.40;950.37;;;18.10;99.90;;;;;;5052447;28;20458;-74
2023/09/13 06:46:11;;;;;;;986.57;936.27;;;18.10;99.90;;;;;;5051621;28;20457;-72
2023/09/13 06:48:41;;;;;;;977.47;928.27;;;18.20;99.90;;;;;;5051285;28;20475;-72
2023/09/13 06:51:08;;;;;;;982.90;932.50;;;18.30;99.90;;;;;;5055670;28;20818;-72
2023/09/13 06:53:36;;;;;;;971.67;923.20;;;18.30;99.90;;;;;;5055508;28;20458;-72
2023/09/13 06:56:04;;;;;;;964.00;915.87;;;18.40;99.90;;;;;;5055258;28;20571;-73
2023/09/13 06:58:30;;;;;;;958.03;910.80;;;18.50;99.90;;;;;;5054789;28;20945;-72
2023/09/13 07:00:57;;;;;;;974.53;926.20;;;18.60;99.90;;;;;;5054990;28;20453;-71
2023/09/13 07:03:24;;;;;;;972.10;924.30;;;18.70;99.90;;;;;;5055958;28;20455;-71
2023/09/13 07:05:51;;;;;;;985.27;936.17;;;18.80;99.90;;;;;;5055585;28;21140;-72
2023/09/13 07:08:18;;;;;;;991.23;941.30;;;18.90;99.90;;;;;;5055266;28;20452;-73
2023/09/13 07:10:46;;;;;;;961.07;914.03;;;19.00;99.90;;;;;;5054958;28;20472;-72
2023/09/13 07:13:13;;;;;;;966.20;918.50;;;19.00;99.90;;;;;;5055818;28;20456;-73
2023/09/13 07:15:40;;;;;;;939.93;893.67;;;19.00;99.90;;;;;;5054774;28;20487;-71
2023/09/13 07:18:08;;;;;;;919.43;874.83;;;19.00;99.90;;;;;;5054755;28;20448;-72
2023/09/13 07:20:35;;;;;;;933.00;887.50;;;19.10;99.90;;;;;;5055082;28;20466;-72
2023/09/13 07:23:03;;;;;;;895.73;852.53;;;19.20;99.90;;;;;;5055797;28;20492;-73
2023/09/13 07:25:29;;;;;;;878.53;836.33;;;19.20;99.90;;;;;;5054909;28;20869;-73
2023/09/13 07:27:59;;;;;;;908.43;863.57;;;19.10;99.90;;;;;;5054823;28;20457;-71
2023/09/13 07:30:26;;;;;;;834.63;794.90;;;19.10;99.90;;;;;;5054570;28;20829;-72
2023/09/13 07:32:53;;;;;;;789.55;751.50;;;19.00;99.90;;;;;;5054131;28;20896;-71
2023/09/13 07:35:21;;;;;;;859.85;818.53;;;19.10;99.90;;;;;;5054152;28;20816;-70
2023/09/13 07:37:48;;;;;;;666.37;635.80;;;19.30;99.90;;;;;;5053949;28;20200;-71
2023/09/13 07:40:15;;;;;;;647.17;617.27;;;19.40;99.90;;;;;;5054069;28;20453;-73
2023/09/13 07:42:42;;;;;;;614.87;586.57;;;19.60;99.90;;;;;;5054505;28;20835;-72
2023/09/13 07:45:10;;;;;;;647.03;616.80;;;19.70;99.90;;;;;;5054257;28;20450;-72
2023/09/13 07:47:37;;;;;;;550.13;525.53;;;20.10;99.90;;;;;;5054354;28;20460;-72
2023/09/13 07:50:05;;;;;;;544.57;520.23;;;20.30;99.90;;;;;;5054251;28;20494;-72
2023/09/13 07:52:31;;;;;;;399.13;382.73;;;20.40;99.90;;;;;;5054193;28;20458;-70
2023/09/13 07:54:58;;;;;;;434.90;416.90;;;20.40;99.90;;;;;;5053779;28;21021;-72
2023/09/13 07:57:25;;;;;;;429.77;412.10;;;20.50;99.90;;;;;;5054214;28;20447;-72
2023/09/13 07:59:52;;;;;;;367.97;353.33;;;20.60;99.90;;;;;;5053388;28;20832;-72
2023/09/13 08:02:20;;;;;;;389.90;374.50;;;20.50;99.90;;;;;;5054047;28;20456;-71
2023/09/13 08:04:49;;;;;;;369.17;354.87;;;20.40;99.90;;;;;;5053760;28;20452;-72
2023/09/13 08:07:16;;;;;;;310.90;299.20;;;20.60;99.90;;;;;;5053606;28;20448;-72
2023/09/13 08:09:43;;;;;;;293.30;282.60;;;20.70;99.90;;;;;;5053450;28;20862;-72
2023/09/13 08:12:10;;;;;;;275.60;265.87;;;20.70;99.90;;;;;;5053443;28;20817;-73
2023/09/13 08:14:37;;;;;;;269.50;260.10;;;20.60;99.90;;;;;;5053323;28;20497;-72
2023/09/13 08:17:04;;;;;;;255.47;246.70;;;20.60;99.90;;;;;;5053698;28;20448;-72
2023/09/13 08:19:32;;;;;;;250.07;241.57;;;20.60;99.90;;;;;;5053327;28;20470;-72
2023/09/13 08:21:59;;;;;;;237.57;229.60;;;20.80;99.90;;;;;;5053389;28;20455;-72
2023/09/13 08:24:26;;;;;;;232.37;224.67;;;21.10;99.90;;;;;;5053335;28;20460;-72
2023/09/13 08:26:53;;;;;;;214.90;207.70;;;21.50;99.90;;;;;;5053083;28;20454;-72
2023/09/13 08:29:19;;;;;;;216.80;209.40;;;21.80;99.90;;;;;;5053393;28;20460;-72
2023/09/13 08:31:46;;;;;;;212.30;205.30;;;22.00;99.90;;;;;;5053075;28;20464;-72
2023/09/13 08:34:13;;;;;;;184.27;178.10;;;21.60;99.90;;;;;;5052885;28;20454;-72
2023/09/13 08:36:41;;;;;;;155.80;150.60;;;21.40;99.90;;;;;;5053324;28;20483;-71
2023/09/13 08:39:08;;;;;;;130.80;126.40;;;21.10;99.90;;;;;;5052819;28;20454;-72
2023/09/13 08:41:35;;;;;;;110.20;106.50;;;20.90;99.90;;;;;;5053001;28;20554;-73
2023/09/13 08:44:05;;;;;;;93.47;90.00;;;20.90;99.90;;;;;;5052765;28;20458;-71
2023/09/13 08:46:32;;;;;;;86.77;83.77;;;20.90;99.90;;;;;;5052978;28;21145;-71
2023/09/13 08:48:59;;;;;;;75.20;72.60;;;20.80;99.90;;;;;;5052579;28;20507;-72
2023/09/13 08:51:28;;;;;;;79.17;76.37;;;20.90;99.90;;;;;;5052778;28;20461;-72
2023/09/13 08:53:57;;;;;;;68.40;66.00;;;20.80;99.90;;;;;;5052803;28;20505;-72
2023/09/13 08:56:24;;;;;;;65.53;63.13;;;20.60;99.90;;;;;;5052466;28;20565;-72
2023/09/13 08:58:52;;;;;;;63.43;61.13;;;20.60;99.90;;;;;;5052589;28;20454;-71
2023/09/13 09:01:20;;;;;;;63.33;60.97;;;20.50;99.90;;;;;;5052793;28;20454;-72
2023/09/13 09:03:49;;;;;;;60.30;57.80;;;20.60;99.90;;;;;;5052620;28;20467;-71
2023/09/13 09:06:17;;;;;;;56.47;54.37;;;20.50;99.90;;;;;;5052493;28;20452;-72
2023/09/13 09:08:46;;;;;;;54.90;52.90;;;20.60;99.90;;;;;;5052345;28;20806;-71
2023/09/13 09:11:15;;;;;;;52.40;50.50;;;20.60;99.90;;;;;;5052102;28;20468;-69
2023/09/13 09:13:45;;;;;;;54.27;52.07;;;20.80;99.90;;;;;;5052032;28;20458;-72
2023/09/13 09:16:15;;;;;;;54.87;52.80;;;20.80;99.90;;;;;;5052547;28;20507;-71
2023/09/13 09:18:43;;;;;;;55.90;53.80;;;20.80;99.90;;;;;;5052245;28;20446;-71
2023/09/13 09:21:10;;;;;;;54.20;51.90;;;20.90;99.90;;;;;;5052241;28;20502;-72
2023/09/13 09:23:39;;;;;;;49.23;47.33;;;20.90;99.90;;;;;;5052191;28;20947;-71
2023/09/13 09:26:05;;;;;;;48.90;47.10;;;21.00;99.90;;;;;;5052126;28;20948;-72
2023/09/13 09:28:34;;;;;;;47.87;46.07;;;21.10;99.90;;;;;;5052310;28;20458;-71
2023/09/13 09:31:02;;;;;;;44.47;42.67;;;21.30;99.90;;;;;;5052169;28;20880;-72
2023/09/13 09:33:30;;;;;;;47.80;46.00;;;21.30;99.90;;;;;;5052366;28;20458;-72
2023/09/13 09:35:58;;;;;;;43.70;42.03;;;21.40;99.90;;;;;;5051985;28;20470;-71
2023/09/13 09:38:28;;;;;;;43.50;41.90;;;21.70;99.90;;;;;;5052160;28;20462;-72
2023/09/13 09:40:58;;;;;;;46.43;44.63;;;22.00;99.90;;;;;;5051913;28;20938;-71
2023/09/13 09:43:25;;;;;;;46.97;45.20;;;22.50;99.90;;;;;;5052141;28;20480;-71
2023/09/13 09:45:53;;;;;;;48.50;46.70;;;22.70;99.90;;;;;;5052096;28;20452;-72
2023/09/13 09:48:21;;;;;;;44.60;42.90;;;22.80;99.90;;;;;;5051915;28;20454;-72
2023/09/13 09:50:52;;;;;;;36.40;35.00;;;22.70;99.90;;;;;;5051729;28;20452;-72
2023/09/13 09:53:21;;;;;;;34.37;32.97;;;22.60;99.90;;;;;;5051952;28;20540;-72
2023/09/13 09:55:48;;;;;;;26.03;24.93;;;22.70;99.90;;;;;;5051931;28;20482;-72
2023/09/13 09:58:17;;;;;;;26.87;25.67;;;22.70;99.90;;;;;;5051752;28;20516;-71
2023/09/13 10:00:48;;;;;;;21.60;20.70;;;22.70;99.90;;;;;;5051782;28;20481;-71
2023/09/13 10:03:18;;;;;;;19.17;18.27;;;22.60;99.90;;;;;;5052005;28;20940;-71
2023/09/13 10:05:56;;;;;;;19.67;18.77;;;22.70;99.90;;;;;;5051998;28;20458;-72
2023/09/13 10:08:40;;;;;;;16.10;15.30;;;23.00;99.90;;;;;;5051941;28;20451;-71
2023/09/13 10:11:07;;;;;;;15.33;14.53;;;22.80;99.90;;;;;;5051841;28;20467;-71
2023/09/13 10:13:35;;;;;;;14.40;13.70;;;22.90;99.90;;;;;;5051699;28;20541;-71
2023/09/13 10:16:02;;;;;;;12.90;12.20;;;23.10;99.90;;;;;;5051899;28;20482;-71
2023/09/13 10:18:32;;;;;;;12.13;11.47;;;23.10;99.90;;;;;;5051810;28;20450;-71
2023/09/13 10:21:00;;;;;;;10.80;10.20;;;23.40;99.90;;;;;;5051595;28;20505;-71
2023/09/13 10:23:38;;;;;;;11.00;10.30;;;23.50;96.60;;;;;;5053344;28;20827;-71
2023/09/13 10:26:08;;;;;;;11.00;10.40;;;23.60;96.60;;;;;;5055446;28;20447;-72
2023/09/13 10:28:37;;;;;;;9.90;9.30;;;24.60;97.00;;;;;;5055209;28;20451;-72
2023/09/13 10:31:09;;;;;;;8.70;8.20;;;25.50;92.00;;;;;;5055152;28;20949;-72
2023/09/13 10:33:44;;;;;;;7.40;6.90;;;26.20;90.60;;;;;;5055355;28;20451;-71
2023/09/13 10:36:16;;;;;;;6.63;6.13;;;26.80;67.60;;;;;;5055151;28;20477;-71
2023/09/13 10:38:49;;;;;;;4.50;4.10;;;27.60;68.20;;;;;;5054977;28;20961;-71
2023/09/13 10:41:18;;;;;;;4.00;3.20;;;28.10;55.00;;;;;;5055362;28;20443;-74
2023/09/13 10:43:46;;;;;;;4.10;2.50;;;27.30;50.70;;;;;;5055229;28;20453;-71
2023/09/13 10:46:14;;;;;;;3.60;1.90;;;26.50;57.70;;;;;;5055199;28;20516;-70
2023/09/13 10:48:45;;;;;;;3.60;1.60;;;25.90;57.10;;;;;;5055357;28;20969;-71
2023/09/13 10:51:13;;;;;;;3.60;1.53;;;25.60;58.40;;;;;;5055220;28;20479;-71
2023/09/13 10:53:42;;;;;;;3.53;1.40;;;26.00;65.00;;;;;;5055032;28;20546;-71
2023/09/13 10:56:11;;;;;;;3.50;1.20;;;26.30;58.80;;;;;;5054953;28;20552;-71
2023/09/13 10:58:40;;;;;;;3.50;1.00;;;25.80;58.50;;;;;;5054926;28;20494;-71
2023/09/13 11:01:07;;;;;;;3.50;1.00;;;25.40;65.40;;;;;;5054708;28;20457;-71
2023/09/13 11:03:34;;;;;;;3.80;1.40;;;24.40;63.00;;;;;;5054626;28;20961;-71
2023/09/13 11:06:03;;;;;;;3.50;0.93;;;24.00;73.70;;;;;;5054884;28;20450;-71
2023/09/13 11:08:32;;;;;;;3.70;1.30;;;23.30;73.10;;;;;;5054789;28;20452;-72
2023/09/13 11:11:09;;;;;;;3.60;1.00;;;22.40;81.70;;;;;;5054351;28;20493;-71
2023/09/13 11:13:36;;;;;;;3.60;1.30;;;22.30;88.10;;;;;;5055030;28;20435;-71
2023/09/13 11:16:04;;;;;;;3.93;1.77;;;22.20;92.60;;;;;;5054357;28;20487;-72
2023/09/13 11:18:32;;;;;;;3.60;1.20;;;22.10;92.50;;;;;;5054809;28;20463;-71
2023/09/13 11:20:59;;;;;;;4.10;1.80;;;21.60;95.70;;;;;;5054575;28;20456;-73
2023/09/13 11:23:27;;;;;;;3.70;1.50;;;21.20;93.90;;;;;;5054510;28;20512;-73
2023/09/13 11:25:55;;;;;;;3.83;1.97;;;20.80;95.50;;;;;;5054417;28;20454;-72
2023/09/13 11:28:43;;;;;;;3.90;2.20;;;19.90;99.90;;;;;;5054484;28;20476;-73
2023/09/13 11:31:13;;;;;;;4.07;2.90;;;19.40;99.90;;;;;;5054581;28;20458;-73
2023/09/13 11:33:46;;;;;;;3.93;2.80;;;19.00;99.90;;;;;;5054761;28;20528;-72
2023/09/13 11:36:16;;;;;;;5.07;4.60;;;18.40;99.90;;;;;;5053937;28;20486;-73
2023/09/13 11:38:45;;;;;;;11.57;10.87;;;17.70;99.90;;;;;;5054231;28;20940;-73
2023/09/13 11:41:17;;;;;;;15.43;14.63;;;17.40;99.90;;;;;;5054264;28;20457;-69
2023/09/13 11:43:44;;;;;;;13.30;12.60;;;17.30;99.90;;;;;;5054255;28;20457;-70
2023/09/13 11:46:12;;;;;;;16.20;15.40;;;16.90;99.90;;;;;;5054228;28;20481;-69
2023/09/13 11:48:40;;;;;;;19.10;18.20;;;16.70;99.90;;;;;;5053830;28;20951;-70
2023/09/13 11:51:11;;;;;;;19.30;18.40;;;16.90;99.90;;;;;;5053793;28;20461;-69
2023/09/13 11:53:38;;;;;;;25.57;24.47;;;17.20;99.90;;;;;;5053702;28;20460;-68
2023/09/13 11:56:07;;;;;;;25.13;24.03;;;16.30;99.90;;;;;;5053954;28;20848;-73
2023/09/13 11:58:36;;;;;;;29.40;28.20;;;16.30;99.90;;;;;;5053829;28;20457;-72
2023/09/13 12:01:04;;;;;;;32.50;31.20;;;16.20;99.90;;;;;;5053692;28;20457;-70
2023/09/13 12:03:33;;;;;;;41.33;39.73;;;17.30;99.90;;;;;;5053878;28;20857;-70
2023/09/13 12:06:00;;;;;;;39.60;38.10;;;17.10;99.90;;;;;;5053478;28;20472;-70
2023/09/13 12:08:29;;;;;;;52.07;50.17;;;16.50;99.90;;;;;;5053648;28;20456;-72
2023/09/13 12:10:56;;;;;;;64.03;61.70;;;17.20;99.90;;;;;;5053242;28;20465;-72
2023/09/13 12:13:43;;;;;;;65.13;62.63;;;17.40;99.90;;;;;;5053511;28;20455;-72
2023/09/13 12:16:11;;;;;;;59.23;57.10;;;17.60;99.90;;;;;;5053345;28;20478;-73
2023/09/13 12:18:38;;;;;;;80.87;78.07;;;16.80;99.90;;;;;;5053210;28;20451;-73
2023/09/13 12:21:06;;;;;;;79.23;76.47;;;17.30;99.90;;;;;;5053212;28;20463;-72